Time;durP1;ratioP1;P1;durP2;ratioP2;P2;SDS_P1;SDS_P2;PMS_P1;PMS_P2;Temp;Humidity;BMP_temperature;BMP_pressure;BME280_temperature;BME280_humidity;BME280_pressure;Samples;Min_cycle;Max_cycle;Signal;HPM_P1;HPM_P2
2023/10/20 00:00:27;;;;;;;12.63;6.17;;;4.40;99.90;3.60;99105;;;;565487;249;24136;-78
2023/10/20 00:02:54;;;;;;;8.47;5.07;;;4.40;99.90;3.50;99121;;;;565781;247;24127;-79
2023/10/20 00:05:22;;;;;;;12.77;6.50;;;4.40;99.90;3.50;99111;;;;565906;249;24148;-78
2023/10/20 00:07:50;;;;;;;9.40;6.30;;;4.40;99.90;3.50;99112;;;;565720;249;24140;-76
2023/10/20 00:10:18;;;;;;;9.47;6.77;;;4.40;99.90;3.50;99106;;;;565245;249;24094;-75
2023/10/20 00:12:46;;;;;;;11.13;6.17;;;4.40;99.90;3.50;99101;;;;565353;249;24104;-75
2023/10/20 00:15:14;;;;;;;9.50;6.87;;;4.40;99.90;3.50;99100;;;;565459;249;24137;-76
2023/10/20 00:17:42;;;;;;;8.50;5.77;;;4.30;99.90;3.50;99106;;;;575513;247;25154;-76
2023/10/20 00:20:10;;;;;;;4.15;3.35;;;4.30;99.90;3.50;99112;;;;562157;249;35370;-77
2023/10/20 00:22:37;;;;;;;4.83;3.00;;;4.40;99.90;3.50;99106;;;;565426;249;24101;-76
2023/10/20 00:25:05;;;;;;;13.30;6.80;;;4.40;99.90;3.50;99110;;;;565393;249;24093;-77
2023/10/20 00:27:34;;;;;;;11.37;6.83;;;4.40;99.90;3.60;99105;;;;570340;247;24125;-76
2023/10/20 00:30:02;;;;;;;8.83;6.00;;;4.40;99.90;3.50;99097;;;;566814;247;24176;-77
2023/10/20 00:32:30;;;;;;;12.80;6.70;;;4.40;99.90;3.50;99093;;;;566451;248;24170;-77
2023/10/20 00:34:57;;;;;;;8.93;6.13;;;4.40;99.90;3.50;99093;;;;566823;248;24107;-80
2023/10/20 00:37:25;;;;;;;9.50;6.43;;;4.30;99.90;3.50;99103;;;;566414;248;24110;-77
2023/10/20 00:39:53;;;;;;;13.97;6.73;;;4.40;99.90;3.50;99092;;;;565787;248;24156;-78
2023/10/20 00:42:21;;;;;;;9.90;7.00;;;4.40;99.90;3.50;99096;;;;565735;248;24124;-76
2023/10/20 00:44:52;;;;;;;12.70;7.20;;;4.40;99.90;3.60;99088;;;;565927;248;24169;-78
2023/10/20 00:47:20;;;;;;;11.77;7.43;;;4.40;99.90;3.60;99087;;;;565524;248;24148;-77
2023/10/20 00:49:45;;;;;;;12.00;7.57;;;4.50;99.90;3.60;99085;;;;562717;249;24085;-77
2023/10/20 00:52:13;;;;;;;13.53;7.80;;;4.50;99.90;3.70;99084;;;;575736;246;24114;-75
2023/10/20 00:54:44;;;;;;;14.50;7.47;;;4.50;99.90;3.70;99085;;;;566161;249;24140;-76
2023/10/20 00:57:09;;;;;;;12.57;7.70;;;4.50;99.90;3.70;99090;;;;565762;247;24167;-78
2023/10/20 00:59:38;;;;;;;12.07;7.23;;;4.60;99.90;3.70;99087;;;;565598;249;24116;-76
2023/10/20 01:02:08;;;;;;;10.23;7.13;;;4.50;99.90;3.70;99077;;;;565939;249;24096;-76
2023/10/20 01:04:36;;;;;;;10.20;6.57;;;4.60;99.90;3.70;99079;;;;567141;249;24174;-79
2023/10/20 01:07:01;;;;;;;12.40;7.03;;;4.60;99.90;3.80;99071;;;;565828;247;24101;-77
2023/10/20 01:09:29;;;;;;;11.17;6.87;;;4.60;99.90;3.70;99073;;;;565481;249;24105;-79
2023/10/20 01:11:57;;;;;;;13.10;7.30;;;4.60;99.90;3.80;99062;;;;567368;249;24131;-76
2023/10/20 01:14:25;;;;;;;14.53;7.47;;;4.60;99.90;3.70;99053;;;;565978;247;24137;-77
2023/10/20 01:16:53;;;;;;;10.97;7.47;;;4.60;99.90;3.70;99047;;;;564826;249;24168;-76
2023/10/20 01:19:21;;;;;;;11.33;6.83;;;4.60;99.90;3.70;99062;;;;565026;249;24105;-77
2023/10/20 01:21:49;;;;;;;11.97;7.33;;;4.60;99.90;3.70;99054;;;;565916;249;24125;-77
2023/10/20 01:24:17;;;;;;;9.33;5.87;;;4.60;99.90;3.70;99043;;;;564928;249;24090;-78
2023/10/20 01:26:44;;;;;;;11.73;7.70;;;4.50;99.90;3.70;99053;;;;564933;249;24182;-77
2023/10/20 01:29:12;;;;;;;11.17;7.37;;;4.50;99.90;3.60;99053;;;;565018;249;24152;-76
2023/10/20 01:31:40;;;;;;;7.57;4.60;;;4.50;99.90;3.60;99053;;;;560037;249;35311;-76
2023/10/20 01:34:08;;;;;;;8.68;6.00;;;6.60;99.90;3.70;99044;;;;559989;249;35339;-76
2023/10/20 01:36:37;;;;;;;12.37;5.32;;;4.50;99.90;3.70;99047;;;;559602;249;46010;-77
2023/10/20 01:39:04;;;;;;;6.93;4.07;;;4.50;99.90;3.70;99054;;;;565977;249;24110;-75
2023/10/20 01:41:33;;;;;;;4.17;3.00;;;4.50;99.90;3.70;99055;;;;568939;245;24168;-75
2023/10/20 01:44:01;;;;;;;11.03;6.23;;;4.50;99.90;3.60;99049;;;;565915;249;24148;-74
2023/10/20 01:46:28;;;;;;;8.50;6.23;;;4.50;99.90;3.60;99049;;;;565716;249;24124;-78
2023/10/20 01:48:56;;;;;;;16.83;8.73;;;4.50;99.90;3.60;99036;;;;571419;248;24143;-76
2023/10/20 01:51:24;;;;;;;15.63;7.93;;;4.50;99.90;3.60;99037;;;;566577;248;24141;-75
2023/10/20 01:53:52;;;;;;;15.73;7.07;;;4.50;99.90;3.50;99048;;;;566294;248;24089;-74
2023/10/20 01:56:20;;;;;;;13.17;6.67;;;4.40;99.90;3.50;99033;;;;565467;249;24095;-74
2023/10/20 01:58:48;;;;;;;12.03;7.03;;;4.40;99.90;3.50;99032;;;;566209;249;24162;-75
2023/10/20 02:01:18;;;;;;;15.77;7.33;;;4.40;99.90;3.40;99025;;;;566003;249;24138;-74
2023/10/20 02:03:46;;;;;;;6.77;4.33;;;4.30;99.90;3.40;99026;;;;566453;249;24141;-76
2023/10/20 02:06:12;;;;;;;11.97;6.93;;;4.30;99.90;3.40;99031;;;;565577;248;24106;-76
2023/10/20 02:08:40;;;;;;;11.50;6.67;;;4.30;99.90;3.40;99017;;;;565792;249;24093;-75
2023/10/20 02:11:08;;;;;;;10.97;6.07;;;4.30;99.90;3.40;99003;;;;565709;249;24108;-78
2023/10/20 02:13:38;;;;;;;11.17;6.43;;;4.20;99.90;3.30;99014;;;;565974;249;24103;-75
2023/10/20 02:16:04;;;;;;;11.57;6.57;;;4.20;99.90;3.30;99000;;;;565826;249;24291;-82
2023/10/20 02:18:31;;;;;;;8.20;5.53;;;4.20;99.90;3.30;99008;;;;566898;249;24101;-75
2023/10/20 02:21:03;;;;;;;10.37;7.10;;;4.20;99.90;3.30;99002;;;;565748;249;24160;-76
2023/10/20 02:23:29;;;;;;;13.87;7.17;;;4.20;99.90;3.30;99005;;;;567641;249;24095;-76
2023/10/20 02:26:08;;;;;;;9.13;6.77;;;4.10;99.90;3.30;99024;;;;565795;249;24126;-75
2023/10/20 02:28:36;;;;;;;13.87;6.40;;;4.20;99.90;3.30;99000;;;;567207;249;24128;-77
2023/10/20 02:31:05;;;;;;;13.33;7.73;;;4.10;99.90;3.30;99020;;;;565563;247;24136;-75
2023/10/20 02:33:30;;;;;;;6.43;5.00;;;4.10;99.90;3.30;98997;;;;565834;249;24147;-75
2023/10/20 02:35:57;;;;;;;10.25;4.90;;;4.10;99.90;3.20;99006;;;;562443;247;35281;-75
2023/10/20 02:38:25;;;;;;;7.00;4.17;;;4.10;99.90;3.20;99003;;;;575642;247;24154;-77
2023/10/20 02:40:53;;;;;;;10.77;6.47;;;4.10;99.90;3.20;99000;;;;566063;249;24130;-80
2023/10/20 02:43:23;;;;;;;12.43;6.53;;;4.10;99.90;3.20;99020;;;;563351;246;24093;-77
2023/10/20 02:45:52;;;;;;;14.70;7.13;;;4.10;99.90;3.30;98999;;;;567443;249;24160;-75
2023/10/20 02:48:19;;;;;;;10.90;5.47;;;4.10;99.90;3.30;98997;;;;566152;249;24131;-77
2023/10/20 02:50:51;;;;;;;13.77;7.27;;;4.10;99.90;3.30;99002;;;;566284;247;25161;-76
2023/10/20 02:53:16;;;;;;;10.77;6.87;;;4.10;99.90;3.30;99021;;;;564985;248;24148;-78
2023/10/20 02:55:43;;;;;;;8.97;6.63;;;4.10;99.90;3.30;99011;;;;566847;248;24077;-78
2023/10/20 02:58:11;;;;;;;8.47;5.37;;;4.10;99.90;3.30;99013;;;;566577;248;24115;-77
2023/10/20 03:00:45;;;;;;;11.93;5.43;;;4.10;99.90;3.30;99014;;;;568266;248;24139;-75
2023/10/20 03:03:17;;;;;;;11.83;7.23;;;4.10;99.90;3.30;98997;;;;566815;248;24184;-75
2023/10/20 03:05:43;;;;;;;8.33;5.73;;;4.10;99.90;3.30;98991;;;;576653;246;24125;-75
2023/10/20 03:08:14;;;;;;;12.27;6.27;;;4.10;99.90;3.30;99016;;;;566079;248;24115;-75
2023/10/20 03:10:39;;;;;;;5.33;3.87;;;4.20;99.90;3.30;99002;;;;568368;249;35287;-82
2023/10/20 03:13:07;;;;;;;7.60;4.65;;;4.20;99.90;3.30;98999;;;;561067;249;35379;-75
2023/10/20 03:15:35;;;;;;;6.50;4.43;;;4.20;99.90;3.40;99006;;;;561309;249;35413;-75
2023/10/20 03:18:03;;;;;;;2.33;1.80;;;4.20;99.90;3.40;99000;;;;576206;247;24133;-76
2023/10/20 03:20:32;;;;;;;1.57;1.47;;;4.30;99.90;3.40;98996;;;;570939;249;24109;-74
2023/10/20 03:22:59;;;;;;;9.40;5.33;;;4.30;99.90;3.40;98983;;;;566138;247;24104;-74
2023/10/20 03:25:27;;;;;;;13.40;6.37;;;4.30;99.90;3.40;98980;;;;566028;249;24135;-75
2023/10/20 03:27:55;;;;;;;7.50;5.20;;;4.30;99.90;3.40;98979;;;;567492;249;24376;-74
2023/10/20 03:30:23;;;;;;;10.77;6.10;;;4.30;99.90;3.40;98969;;;;565800;249;24136;-76
2023/10/20 03:32:51;;;;;;;9.13;6.57;;;4.20;99.90;3.40;98978;;;;565804;249;24082;-74
2023/10/20 03:35:19;;;;;;;13.97;6.13;;;4.30;99.90;3.40;98968;;;;565952;249;24085;-75
2023/10/20 03:37:47;;;;;;;10.70;6.23;;;4.30;99.90;3.30;98978;;;;565827;249;24106;-75
2023/10/20 03:40:16;;;;;;;9.30;6.27;;;4.30;99.90;3.40;98995;;;;567186;249;24117;-75
2023/10/20 03:43:08;;;;;;;9.30;6.77;;;4.20;99.90;3.30;98996;;;;565380;249;24160;-76
2023/10/20 03:45:40;;;;;;;11.57;7.07;;;4.20;99.90;3.30;98992;;;;565223;249;24100;-75
2023/10/20 03:48:03;;;;;;;11.70;6.80;;;4.20;99.90;3.30;98981;;;;567486;246;25142;-77
2023/10/20 03:50:35;;;;;;;12.23;6.47;;;4.20;99.90;3.30;98996;;;;570598;248;24105;-76
2023/10/20 03:52:59;;;;;;;11.73;6.47;;;4.20;99.90;3.30;99002;;;;565162;249;24203;-74
2023/10/20 03:55:27;;;;;;;10.87;6.23;;;4.20;99.90;3.20;99000;;;;565699;249;24189;-78
2023/10/20 03:57:55;;;;;;;12.50;6.20;;;4.10;99.90;3.20;98991;;;;565515;249;24093;-74
2023/10/20 04:00:28;;;;;;;8.00;5.73;;;4.10;99.90;3.10;98986;;;;565365;249;24091;-77
2023/10/20 04:02:51;;;;;;;7.97;5.50;;;4.10;99.90;3.10;98995;;;;564780;248;24112;-74
2023/10/20 04:05:19;;;;;;;8.17;6.13;;;4.00;99.90;3.10;98994;;;;565487;249;24166;-75
2023/10/20 04:07:50;;;;;;;9.37;6.00;;;4.00;99.90;3.10;99006;;;;565448;249;24141;-77
2023/10/20 04:10:18;;;;;;;9.43;5.97;;;4.00;99.90;3.10;99004;;;;564931;249;25190;-76
2023/10/20 04:12:42;;;;;;;7.23;5.53;;;4.00;99.90;3.10;99001;;;;567543;248;24186;-75
2023/10/20 04:15:14;;;;;;;12.13;6.00;;;4.00;99.90;3.10;98993;;;;566333;248;24100;-75
2023/10/20 04:17:38;;;;;;;10.10;5.60;;;3.90;99.90;3.00;99003;;;;566012;248;25138;-76
2023/10/20 04:20:06;;;;;;;9.20;5.83;;;4.00;99.90;3.00;99002;;;;576665;247;24092;-75
2023/10/20 04:22:34;;;;;;;6.80;5.47;;;3.90;99.90;3.00;99005;;;;567644;249;24159;-75
2023/10/20 04:25:02;;;;;;;12.07;5.50;;;3.90;99.90;2.90;98995;;;;566186;249;24146;-75
2023/10/20 04:27:50;;;;;;;9.17;5.53;;;3.80;99.90;2.90;99004;;;;566087;247;24112;-77
2023/10/20 04:54:48;;;;;;;9.07;5.63;;;3.50;99.90;2.60;99008;;;;567292;247;24112;-76
2023/10/20 05:02:39;;;;;;;7.67;5.73;;;3.50;99.90;2.50;98989;;;;558544;249;24104;-77
2023/10/20 05:05:03;;;;;;;7.00;5.07;;;2.90;99.90;2.60;98980;;;;565385;249;24132;-77
2023/10/20 05:07:30;;;;;;;5.97;5.37;;;3.50;99.90;2.60;98977;;;;565609;249;24089;-77
2023/10/20 05:09:59;;;;;;;6.30;4.97;;;3.50;99.90;2.60;98992;;;;565370;249;24164;-77
2023/10/20 05:12:28;;;;;;;7.90;5.83;;;3.50;99.90;2.60;98979;;;;565247;249;24120;-76
2023/10/20 05:14:55;;;;;;;7.93;6.07;;;3.50;99.90;2.60;98986;;;;566380;248;24100;-75
2023/10/20 05:17:24;;;;;;;8.17;5.70;;;3.50;99.90;2.60;98980;;;;567139;248;24112;-75
2023/10/20 05:19:53;;;;;;;11.00;6.07;;;3.50;99.90;2.60;98992;;;;566843;248;24104;-76
2023/10/20 05:22:18;;;;;;;6.00;5.17;;;3.50;99.90;2.60;98997;;;;566915;248;24154;-77
2023/10/20 05:24:46;;;;;;;6.93;5.70;;;3.50;99.90;2.60;98985;;;;566400;248;25167;-76
2023/10/20 05:27:14;;;;;;;9.77;5.50;;;3.50;99.90;2.60;99013;;;;566651;248;24115;-75
2023/10/20 05:29:42;;;;;;;6.23;4.63;;;3.60;99.90;2.70;99000;;;;566438;248;24156;-75
2023/10/20 05:32:10;;;;;;;6.63;4.90;;;3.60;99.90;2.70;98991;;;;576515;246;24132;-78
2023/10/20 05:34:39;;;;;;;7.40;5.27;;;3.60;99.90;2.70;98996;;;;566083;249;24132;-76
2023/10/20 05:37:07;;;;;;;5.73;4.43;;;3.60;99.90;2.70;98999;;;;565996;248;24105;-80
2023/10/20 05:39:34;;;;;;;5.20;4.70;;;3.70;99.90;2.80;98999;;;;566242;249;24111;-79
2023/10/20 05:42:04;;;;;;;8.63;4.93;;;3.70;99.90;2.80;99004;;;;566079;248;24130;-81
2023/10/20 05:44:33;;;;;;;7.93;4.53;;;3.70;99.90;2.80;98999;;;;567145;249;24150;-76
2023/10/20 05:47:01;;;;;;;5.43;4.57;;;3.80;99.90;2.90;98987;;;;566114;249;24116;-75
2023/10/20 05:49:29;;;;;;;6.55;5.87;;;3.80;99.90;2.90;99014;;;;561162;249;35443;-77
2023/10/20 05:51:58;;;;;;;4.37;3.93;;;3.90;99.90;2.90;99009;;;;567454;249;24278;-77
2023/10/20 05:54:25;;;;;;;7.70;3.90;;;3.80;99.90;3.00;98998;;;;566130;249;24098;-77
2023/10/20 05:56:53;;;;;;;4.33;3.27;;;3.90;99.90;2.90;98996;;;;565779;249;24099;-76
2023/10/20 05:59:21;;;;;;;7.13;3.77;;;3.90;99.90;2.90;98999;;;;565794;249;24140;-78
2023/10/20 06:01:50;;;;;;;9.53;4.40;;;3.80;99.90;2.90;99007;;;;565985;249;24142;-76
2023/10/20 06:04:18;;;;;;;6.37;4.00;;;3.80;99.90;2.90;99005;;;;566057;249;25203;-77
2023/10/20 06:06:46;;;;;;;5.07;3.20;;;3.80;99.90;2.90;99011;;;;565985;249;24110;-73
2023/10/20 06:09:16;;;;;;;8.13;3.73;;;3.80;99.90;2.90;99003;;;;565903;249;24122;-77
2023/10/20 06:11:47;;;;;;;4.67;3.67;;;3.80;99.90;2.90;98995;;;;565483;249;24173;-78
2023/10/20 06:14:11;;;;;;;3.93;2.67;;;3.80;99.90;2.90;99001;;;;565087;249;24152;-78
2023/10/20 06:16:39;;;;;;;4.17;3.63;;;3.70;99.90;2.80;98998;;;;565938;249;24098;-76
2023/10/20 06:19:07;;;;;;;4.07;3.30;;;3.70;99.90;2.80;98996;;;;565808;249;24101;-77
2023/10/20 06:21:35;;;;;;;4.07;3.63;;;3.70;99.90;2.80;98990;;;;565808;249;24089;-80
2023/10/20 06:24:03;;;;;;;3.70;3.33;;;3.70;99.90;2.80;98983;;;;565923;249;24081;-78
2023/10/20 06:26:30;;;;;;;5.83;5.00;;;3.70;99.90;2.80;98975;;;;568274;247;24119;-78
2023/10/20 06:28:58;;;;;;;4.70;3.60;;;3.70;99.90;2.80;98975;;;;566976;248;24135;-78
2023/10/20 06:34:09;;;;;;;7.07;4.20;;;3.70;99.90;2.80;98974;;;;566662;248;24113;-79
2023/10/20 06:36:28;;;;;;;5.77;4.00;;;3.70;99.90;2.80;98974;;;;566011;248;24100;-80
2023/10/20 06:38:57;;;;;;;4.93;3.40;;;3.70;99.90;2.80;98978;;;;566430;248;24184;-81
2023/10/20 06:41:24;;;;;;;7.43;3.87;;;3.70;99.90;2.80;98978;;;;566423;248;24152;-77
2023/10/20 06:43:52;;;;;;;6.33;5.47;;;3.70;99.90;2.80;98975;;;;561494;249;35387;-77
2023/10/20 06:46:21;;;;;;;6.60;4.95;;;3.70;99.90;2.80;98974;;;;561040;249;35364;-80
2023/10/20 06:48:48;;;;;;;8.00;5.63;;;3.70;99.90;2.80;98966;;;;562551;249;35315;-79
2023/10/20 06:51:19;;;;;;;12.07;5.07;;;3.70;99.90;2.90;98968;;;;566521;249;24194;-78
2023/10/20 06:53:48;;;;;;;13.03;4.90;;;3.80;99.90;2.90;98956;;;;564944;249;24157;-78
2023/10/20 06:56:16;;;;;;;6.43;4.50;;;3.70;99.90;2.90;98970;;;;566170;249;24136;-78
2023/10/20 06:58:47;;;;;;;6.63;4.33;;;3.80;99.90;2.90;98968;;;;567814;249;24100;-77
2023/10/20 07:01:12;;;;;;;7.13;4.13;;;3.80;99.90;2.90;98960;;;;567795;249;24133;-79
2023/10/20 07:03:40;;;;;;;7.60;4.60;;;3.80;99.90;2.90;98965;;;;566128;249;24094;-77
2023/10/20 07:06:10;;;;;;;7.17;4.97;;;3.80;99.90;2.90;98968;;;;566072;248;24134;-79
2023/10/20 07:08:36;;;;;;;7.90;4.63;;;3.80;99.90;2.90;98961;;;;565898;249;24113;-78
2023/10/20 07:11:05;;;;;;;6.20;4.20;;;3.70;99.90;2.80;98969;;;;565775;248;24103;-78
2023/10/20 07:13:33;;;;;;;6.10;4.90;;;3.70;99.90;2.80;98970;;;;567126;249;24133;-75
2023/10/20 07:16:00;;;;;;;7.43;4.80;;;3.70;99.90;2.80;98988;;;;563251;249;24148;-75
2023/10/20 07:18:28;;;;;;;6.43;4.83;;;3.70;99.90;2.70;98970;;;;566214;248;24090;-77
2023/10/20 07:20:56;;;;;;;5.97;4.80;;;3.70;99.90;2.70;98972;;;;576516;246;24195;-77
2023/10/20 07:23:28;;;;;;;8.07;4.20;;;3.70;99.90;2.80;98978;;;;566342;249;24162;-78
2023/10/20 07:25:52;;;;;;;5.80;4.60;;;3.70;99.90;2.80;98982;;;;566040;249;24127;-81
2023/10/20 07:28:24;;;;;;;11.43;5.67;;;3.60;99.90;2.70;98978;;;;566025;248;24101;-77
2023/10/20 07:30:49;;;;;;;5.60;5.03;;;3.60;99.90;2.70;98970;;;;566015;249;24111;-75
2023/10/20 07:33:17;;;;;;;7.27;5.20;;;3.60;99.90;2.70;98989;;;;566287;249;24104;-76
2023/10/20 07:35:44;;;;;;;6.17;4.90;;;3.60;99.90;2.70;98969;;;;576375;245;24159;-77
2023/10/20 07:38:17;;;;;;;9.13;5.40;;;3.60;99.90;2.70;98954;;;;567027;248;24147;-75
2023/10/20 07:40:43;;;;;;;7.37;5.77;;;3.60;99.90;2.70;98941;;;;567234;248;24112;-76
2023/10/20 07:43:11;;;;;;;8.20;5.30;;;3.60;99.90;2.70;98944;;;;567181;248;24119;-78
2023/10/20 07:45:41;;;;;;;6.80;5.40;;;3.60;99.90;2.70;98965;;;;567233;248;24090;-78
2023/10/20 07:48:12;;;;;;;7.00;5.47;;;3.60;99.90;2.70;98946;;;;568073;246;24127;-77
2023/10/20 07:50:44;;;;;;;6.60;5.50;;;3.60;99.90;2.70;98950;;;;566676;248;24174;-77
2023/10/20 07:53:08;;;;;;;8.73;5.40;;;3.60;99.90;2.80;98958;;;;566179;248;24120;-77
2023/10/20 07:55:36;;;;;;;7.90;5.43;;;3.60;99.90;2.80;98939;;;;566741;249;24104;-79
2023/10/20 07:58:04;;;;;;;7.03;5.07;;;3.60;99.90;2.80;98960;;;;566265;249;24085;-78
2023/10/20 08:00:32;;;;;;;6.80;4.87;;;3.60;99.90;2.80;98924;;;;567873;249;24119;-75
2023/10/20 08:03:00;;;;;;;7.53;3.70;;;3.70;99.90;2.80;98955;;;;567602;249;24095;-79
2023/10/20 08:05:28;;;;;;;6.87;4.70;;;3.70;99.90;2.80;98931;;;;565975;249;24113;-77
2023/10/20 08:07:58;;;;;;;8.10;5.20;;;3.70;99.90;2.80;98930;;;;565818;249;24185;-80
2023/10/20 08:10:23;;;;;;;5.50;4.23;;;3.60;99.90;2.80;98947;;;;567448;249;24112;-76
2023/10/20 08:12:51;;;;;;;5.80;3.73;;;3.60;99.90;2.80;98933;;;;565900;249;24089;-82
2023/10/20 08:15:20;;;;;;;6.67;4.97;;;3.70;99.90;2.80;98937;;;;565703;249;24153;-82
2023/10/20 08:17:52;;;;;;;6.10;4.97;;;3.60;99.90;2.80;98929;;;;565918;248;24158;-77
2023/10/20 08:20:16;;;;;;;7.40;5.07;;;3.70;99.90;2.80;98921;;;;575587;246;24162;-80
2023/10/20 08:22:44;;;;;;;7.10;4.73;;;3.70;99.90;2.80;98928;;;;565775;249;24173;-79
2023/10/20 08:25:12;;;;;;;6.47;3.93;;;3.70;99.90;2.80;98943;;;;565709;249;24098;-84
2023/10/20 08:27:43;;;;;;;7.90;5.07;;;4.10;99.90;2.80;98926;;;;566063;249;24087;-79
2023/10/20 08:30:08;;;;;;;5.47;3.97;;;3.70;99.90;2.80;98933;;;;566816;249;24103;-79
2023/10/20 08:32:36;;;;;;;5.97;4.57;;;3.70;99.90;2.80;98936;;;;567347;249;25139;-75
2023/10/20 08:35:05;;;;;;;7.80;4.57;;;3.70;99.90;2.80;98944;;;;565749;249;24100;-82
2023/10/20 08:37:32;;;;;;;6.73;4.57;;;3.70;99.90;2.80;98963;;;;566164;249;26245;-78
2023/10/20 08:40:01;;;;;;;6.07;5.13;;;3.60;99.90;2.80;98953;;;;565969;249;25135;-83
2023/10/20 08:42:33;;;;;;;8.33;5.23;;;3.60;99.90;2.80;98948;;;;566158;249;24091;-79
2023/10/20 08:44:57;;;;;;;7.27;3.77;;;3.70;99.90;2.90;98955;;;;567321;249;24118;-78
2023/10/20 08:47:29;;;;;;;7.43;5.03;;;3.70;99.90;2.80;98970;;;;567681;249;24103;-76
2023/10/20 08:49:56;;;;;;;8.43;5.27;;;3.70;99.90;2.80;98959;;;;568812;248;24211;-78
2023/10/20 08:52:25;;;;;;;8.90;5.27;;;3.70;99.90;2.80;98957;;;;569242;248;24145;-76
2023/10/20 08:54:50;;;;;;;7.13;5.20;;;3.70;99.90;2.90;98951;;;;566621;248;25256;-79
2023/10/20 08:57:18;;;;;;;6.87;5.10;;;3.70;99.90;2.90;98949;;;;568808;247;24111;-77
2023/10/20 08:59:55;;;;;;;5.33;4.00;;;3.70;99.90;2.80;98944;;;;566801;248;24077;-78
2023/10/20 09:02:20;;;;;;;9.27;5.37;;;3.70;99.90;2.90;98950;;;;568120;248;24097;-78
2023/10/20 09:04:53;;;;;;;6.83;4.97;;;3.70;99.90;2.90;98955;;;;568347;248;24536;-76
2023/10/20 09:07:18;;;;;;;5.47;3.93;;;3.70;99.90;2.90;98948;;;;567993;249;24128;-82
2023/10/20 09:09:46;;;;;;;5.67;4.13;;;3.70;99.90;2.90;98932;;;;567822;249;24115;-77
2023/10/20 09:12:14;;;;;;;7.70;5.33;;;3.70;99.90;2.80;98938;;;;566358;249;24133;-82
2023/10/20 09:14:42;;;;;;;6.90;5.13;;;3.70;99.90;2.90;98940;;;;567416;249;24116;-78
2023/10/20 09:17:10;;;;;;;7.90;5.43;;;3.70;99.90;2.90;98933;;;;566450;248;24114;-80
2023/10/20 09:19:38;;;;;;;8.60;4.47;;;3.80;99.90;3.00;98916;;;;567208;249;24142;-82
2023/10/20 09:22:06;;;;;;;5.83;4.20;;;3.80;99.90;2.90;98921;;;;566471;249;24123;-77
2023/10/20 09:24:34;;;;;;;6.70;5.30;;;3.80;99.90;3.00;98921;;;;576228;246;24154;-78
2023/10/20 09:27:05;;;;;;;6.30;4.53;;;3.80;99.90;3.00;98937;;;;567507;249;24106;-75
2023/10/20 09:29:30;;;;;;;9.57;5.07;;;3.80;99.90;3.00;98932;;;;575654;249;25138;-76
2023/10/20 09:32:04;;;;;;;8.77;4.87;;;3.80;99.90;3.00;98925;;;;565937;249;24113;-81
2023/10/20 09:34:29;;;;;;;8.27;5.43;;;3.90;99.90;3.00;98932;;;;563651;249;24104;-83
2023/10/20 09:36:57;;;;;;;10.93;6.10;;;3.80;99.90;3.00;98921;;;;565990;249;24088;-76
2023/10/20 09:39:30;;;;;;;6.87;3.90;;;3.80;99.90;3.00;98932;;;;567049;249;24128;-79
2023/10/20 09:41:58;;;;;;;11.73;5.63;;;3.90;99.90;3.00;98927;;;;565267;249;24118;-75
2023/10/20 09:44:41;;;;;;;9.70;5.83;;;3.90;99.90;2.90;98926;;;;565725;248;24107;-76
2023/10/20 09:47:24;;;;;;;8.33;5.87;;;3.80;99.90;2.90;98916;;;;566108;249;24136;-77
2023/10/20 09:49:52;;;;;;;10.67;5.47;;;3.80;99.90;3.00;98923;;;;565674;249;24097;-80
2023/10/20 09:52:19;;;;;;;6.20;5.60;;;3.80;99.90;3.00;98927;;;;576022;249;24099;-76
2023/10/20 09:54:50;;;;;;;11.30;5.70;;;3.80;99.90;3.00;98914;;;;565890;248;25129;-78
2023/10/20 09:57:17;;;;;;;6.63;5.23;;;3.90;99.90;2.90;98916;;;;567471;249;24173;-75
2023/10/20 09:59:43;;;;;;;17.60;6.10;;;3.80;99.90;2.90;98928;;;;563451;249;24104;-76
2023/10/20 10:02:11;;;;;;;10.97;5.67;;;3.80;99.90;2.90;98920;;;;567373;248;24107;-76
2023/10/20 10:04:43;;;;;;;6.33;5.73;;;3.80;99.90;2.90;98929;;;;567311;248;24134;-79
2023/10/20 10:07:07;;;;;;;7.20;5.93;;;3.80;99.90;2.90;98929;;;;567059;248;24117;-80
2023/10/20 10:09:38;;;;;;;7.73;5.67;;;3.80;99.90;2.90;98922;;;;576937;246;24155;-78
2023/10/20 10:12:14;;;;;;;9.90;6.00;;;3.80;99.90;2.90;98908;;;;567097;248;24144;-78
2023/10/20 10:14:40;;;;;;;10.97;6.30;;;3.70;99.90;2.90;98927;;;;566511;248;24100;-81
2023/10/20 10:17:08;;;;;;;10.47;6.17;;;3.70;99.90;2.90;98935;;;;566419;247;24122;-81
2023/10/20 10:19:40;;;;;;;9.23;6.70;;;3.80;99.90;2.80;98918;;;;566776;249;24139;-79
2023/10/20 10:22:04;;;;;;;10.40;6.50;;;3.70;99.90;2.90;98913;;;;566297;249;24147;-84
2023/10/20 10:24:36;;;;;;;11.57;6.73;;;3.70;99.90;2.90;98908;;;;565929;249;24155;-78
2023/10/20 10:27:11;;;;;;;7.57;6.07;;;3.80;99.90;3.00;98907;;;;575821;248;24135;-80
2023/10/20 10:29:59;;;;;;;9.10;6.70;;;3.80;99.90;2.90;98904;;;;571045;249;24115;-77
2023/10/20 10:32:26;;;;;;;11.13;7.03;;;3.80;99.90;2.90;98890;;;;567949;249;24138;-80
2023/10/20 10:34:53;;;;;;;9.33;6.80;;;3.80;99.90;2.90;98893;;;;566996;249;24115;-77
2023/10/20 10:37:37;;;;;;;9.63;6.00;;;3.80;99.90;2.90;98896;;;;571041;249;24091;-77
2023/10/20 10:40:08;;;;;;;12.30;8.03;;;3.80;99.90;2.90;98891;;;;567556;249;24119;-76
2023/10/20 10:42:48;;;;;;;10.03;6.90;;;3.80;99.90;2.90;98896;;;;567590;249;24184;-77
2023/10/20 10:45:24;;;;;;;9.13;6.73;;;3.80;99.90;3.00;98884;;;;567624;249;24132;-76
2023/10/20 10:47:52;;;;;;;12.80;8.43;;;3.80;99.90;3.00;98890;;;;576414;246;24148;-75
2023/10/20 10:50:20;;;;;;;10.27;8.37;;;3.90;99.90;3.10;98891;;;;566191;248;24098;-75
2023/10/20 10:52:48;;;;;;;12.37;9.10;;;3.90;99.90;3.10;98870;;;;566210;249;24144;-78
2023/10/20 10:55:16;;;;;;;9.37;7.63;;;4.00;99.90;3.10;98888;;;;566277;249;24080;-76
2023/10/20 10:57:47;;;;;;;10.67;7.97;;;4.00;99.90;3.10;98900;;;;566261;249;24107;-79
2023/10/20 11:00:16;;;;;;;11.40;9.10;;;4.00;99.90;3.10;98894;;;;567187;249;24097;-76
2023/10/20 11:02:43;;;;;;;11.83;9.20;;;3.90;99.90;3.10;98894;;;;575989;248;24098;-77
2023/10/20 11:05:12;;;;;;;13.30;9.13;;;4.00;99.90;3.10;98900;;;;566040;249;24093;-75
2023/10/20 11:07:37;;;;;;;14.33;9.63;;;3.90;99.90;3.10;98898;;;;573590;249;24143;-76
2023/10/20 11:10:05;;;;;;;11.40;9.90;;;4.00;99.90;3.20;98901;;;;563342;246;24107;-82
2023/10/20 11:12:35;;;;;;;10.27;8.40;;;4.00;99.90;3.20;98895;;;;567924;248;24107;-75
2023/10/20 11:15:04;;;;;;;12.63;9.50;;;4.10;99.90;3.20;98888;;;;577258;247;24105;-75
2023/10/20 11:17:28;;;;;;;10.13;9.10;;;4.00;99.90;3.20;98901;;;;568552;248;24096;-75
2023/10/20 11:19:56;;;;;;;14.53;11.10;;;4.10;99.90;3.20;98881;;;;564027;246;24152;-77
2023/10/20 11:22:24;;;;;;;15.47;10.83;;;4.10;99.90;3.20;98893;;;;576562;245;24103;-76
2023/10/20 11:24:55;;;;;;;14.30;10.73;;;4.10;99.90;3.20;98889;;;;567907;248;24103;-76
2023/10/20 11:27:23;;;;;;;15.83;11.27;;;4.10;99.90;3.20;98886;;;;567806;248;24115;-77
2023/10/20 11:29:51;;;;;;;13.10;9.80;;;4.00;99.90;3.10;98883;;;;567679;248;24109;-76
2023/10/20 11:32:22;;;;;;;13.00;10.43;;;4.00;99.90;3.10;98869;;;;566465;249;24089;-78
2023/10/20 11:34:47;;;;;;;14.33;9.73;;;4.00;99.90;3.10;98876;;;;567639;249;24104;-78
2023/10/20 11:37:15;;;;;;;12.37;9.40;;;4.00;99.90;3.10;98876;;;;566552;249;24111;-76
2023/10/20 11:39:44;;;;;;;13.03;9.70;;;4.00;99.90;3.10;98881;;;;566321;249;24166;-76
2023/10/20 11:42:11;;;;;;;13.43;10.10;;;4.00;99.90;3.00;98878;;;;566291;249;24100;-77
2023/10/20 11:44:39;;;;;;;14.13;10.67;;;4.00;99.90;3.00;98874;;;;567690;249;24232;-79
2023/10/20 11:47:07;;;;;;;12.93;10.20;;;3.90;99.90;3.00;98897;;;;568135;247;24112;-80
2023/10/20 11:49:35;;;;;;;15.47;10.13;;;3.90;99.90;3.00;98887;;;;567288;249;24106;-77
2023/10/20 11:52:05;;;;;;;11.80;9.47;;;3.90;99.90;3.00;98900;;;;567035;249;24109;-78
2023/10/20 11:54:31;;;;;;;9.53;7.67;;;3.90;99.90;3.00;98886;;;;570720;249;24092;-75
2023/10/20 11:56:59;;;;;;;12.70;10.40;;;3.90;99.90;3.00;98899;;;;565633;249;24104;-77
2023/10/20 11:59:26;;;;;;;11.93;9.33;;;3.90;99.90;3.00;98898;;;;567187;249;24121;-76
2023/10/20 12:01:54;;;;;;;13.43;9.30;;;3.90;99.90;3.00;98905;;;;566446;249;24247;-77
2023/10/20 12:04:22;;;;;;;12.43;8.80;;;3.90;99.90;3.00;98915;;;;565809;249;24126;-79
2023/10/20 12:06:50;;;;;;;4.82;4.05;;;3.80;99.90;3.00;98916;;;;560181;249;35394;-77